createdAt,value
2019-05-05T00:02:18.859Z,15.35
2019-05-05T00:07:41.134Z,15.24
2019-05-05T00:13:22.234Z,15.20
2019-05-05T00:18:44.819Z,15.25
2019-05-05T00:24:07.335Z,15.03
2019-05-05T00:29:28.993Z,14.98
2019-05-05T00:34:50.853Z,14.96
2019-05-05T00:40:14.227Z,14.92
2019-05-05T00:45:37.244Z,14.87
2019-05-05T00:50:59.354Z,14.79
2019-05-05T00:56:21.206Z,14.67
2019-05-05T01:01:55.310Z,14.68
2019-05-05T01:07:17.597Z,14.76
2019-05-05T01:12:39.374Z,14.59
2019-05-05T01:18:02.295Z,14.61
2019-05-05T01:23:25.561Z,14.67
2019-05-05T01:28:47.936Z,14.61
2019-05-05T01:34:29.461Z,14.50
2019-05-05T01:40:00.419Z,14.42
2019-05-05T01:45:24.202Z,14.27
2019-05-05T01:50:46.450Z,14.30
2019-05-05T01:56:08.541Z,14.31
2019-05-05T02:01:30.146Z,14.36
2019-05-05T02:06:51.582Z,14.23
2019-05-05T02:12:12.958Z,14.35
2019-05-05T02:17:35.265Z,14.34
2019-05-05T02:22:57.320Z,14.40
2019-05-05T02:28:18.775Z,14.52
2019-05-05T02:33:40.466Z,14.49
2019-05-05T02:39:02.037Z,14.58
2019-05-05T02:44:26.182Z,14.48
2019-05-05T02:49:49.287Z,14.41
2019-05-05T02:55:11.940Z,14.28
2019-05-05T03:00:54.136Z,14.06
2019-05-05T03:06:15.678Z,13.79
2019-05-05T03:11:38.934Z,13.73
2019-05-05T03:17:01.318Z,13.75
2019-05-05T03:22:24.207Z,13.89
2019-05-05T03:27:45.999Z,13.85
2019-05-05T03:33:07.651Z,13.74
2019-05-05T03:38:29.971Z,13.89
2019-05-05T03:44:11.450Z,13.86
2019-05-05T03:49:33.939Z,13.91
2019-05-05T03:54:55.945Z,14.13
2019-05-05T04:00:27.415Z,14.35
2019-05-05T04:05:55.307Z,14.45
2019-05-05T04:11:17.166Z,14.28
2019-05-05T04:16:48.059Z,14.46
2019-05-05T04:22:10.012Z,14.54
2019-05-05T04:27:31.714Z,14.56
2019-05-05T04:32:54.576Z,14.79
2019-05-05T04:38:16.692Z,14.66
2019-05-05T04:43:38.111Z,14.78
2019-05-05T04:49:10.956Z,15.08
2019-05-05T04:54:43.866Z,15.34
2019-05-05T05:00:06.130Z,15.34
2019-05-05T05:05:33.726Z,15.10
2019-05-05T05:10:55.661Z,15.01
2019-05-05T05:16:17.304Z,14.77
2019-05-05T05:21:39.134Z,14.50
2019-05-05T05:27:00.908Z,14.11
2019-05-05T05:32:24.546Z,14.23
2019-05-05T05:37:46.130Z,14.48
2019-05-05T05:43:11.205Z,14.37
2019-05-05T05:48:47.143Z,14.33
2019-05-05T05:54:08.668Z,14.45
2019-05-05T05:59:30.631Z,14.42
2019-05-05T06:04:53.976Z,14.41
2019-05-05T06:10:23.936Z,14.56
2019-05-05T06:15:41.290Z,14.43
2019-05-05T06:21:04.483Z,14.40
2019-05-05T06:26:26.406Z,14.45
2019-05-05T06:31:48.098Z,14.64
2019-05-05T06:37:09.982Z,14.75
2019-05-05T06:42:54.494Z,14.83
2019-05-05T06:48:16.222Z,14.76
2019-05-05T06:53:37.967Z,14.95
2019-05-05T06:58:59.666Z,14.94
2019-05-05T07:04:21.706Z,14.99
2019-05-05T07:09:44.393Z,15.35
2019-05-05T07:15:06.255Z,15.49
2019-05-05T07:20:28.245Z,15.73
2019-05-05T07:25:50.077Z,16.18
2019-05-05T07:31:11.837Z,16.84
2019-05-05T07:36:45.011Z,17.48
2019-05-05T07:42:06.675Z,17.18
2019-05-05T07:47:28.274Z,17.21
2019-05-05T07:52:50.286Z,17.13
2019-05-05T07:58:13.825Z,17.17
2019-05-05T08:03:35.796Z,17.01
2019-05-05T08:08:57.440Z,17.29
2019-05-05T08:14:18.789Z,17.95
2019-05-05T08:20:19.414Z,18.08
2019-05-05T08:25:46.498Z,18.25
2019-05-05T08:31:16.940Z,18.48
2019-05-05T08:36:39.508Z,18.64
2019-05-05T08:42:01.148Z,18.25
2019-05-05T08:47:24.572Z,18.37
2019-05-05T08:52:46.704Z,18.13
2019-05-05T08:58:08.424Z,18.64
2019-05-05T09:03:30.182Z,18.53
2019-05-05T09:08:51.702Z,18.12
2019-05-05T09:14:14.979Z,17.94
2019-05-05T09:19:36.485Z,18.41
2019-05-05T09:25:10.167Z,18.64
2019-05-05T09:30:38.323Z,18.83
2019-05-05T09:36:00.250Z,18.79
2019-05-05T09:41:23.556Z,18.69
2019-05-05T09:46:45.533Z,18.22
2019-05-05T09:52:07.362Z,18.35
2019-05-05T09:57:28.910Z,17.86
2019-05-05T10:02:50.755Z,17.37
2019-05-05T10:08:14.280Z,16.99
2019-05-05T10:13:36.214Z,17.34
2019-05-05T10:18:57.935Z,18.08
2019-05-05T10:24:30.699Z,18.86
2019-05-05T10:29:50.146Z,18.95
2019-05-05T10:35:14.337Z,18.66
2019-05-05T10:40:36.298Z,18.66
2019-05-05T10:45:57.924Z,18.86
2019-05-05T10:51:19.867Z,19.01
2019-05-05T10:56:41.504Z,19.34
2019-05-05T11:02:04.862Z,19.84
2019-05-05T11:07:26.927Z,19.83
2019-05-05T11:12:48.465Z,19.99
2019-05-05T11:18:10.089Z,20.13
2019-05-05T11:23:34.351Z,20.12
2019-05-05T11:28:55.888Z,19.76
2019-05-05T11:34:21.044Z,20.15
2019-05-05T11:39:44.549Z,19.87
2019-05-05T11:45:06.649Z,19.65
2019-05-05T11:50:28.694Z,19.99
2019-05-05T11:55:50.535Z,20.10
2019-05-05T12:01:13.833Z,21.17
2019-05-05T12:06:36.006Z,21.63
2019-05-05T12:11:57.809Z,21.78
2019-05-05T12:17:35.367Z,22.12
2019-05-05T12:22:57.000Z,22.04
2019-05-05T12:28:50.257Z,21.67
2019-05-05T12:34:11.840Z,21.53
2019-05-05T12:39:33.657Z,21.37
2019-05-05T12:45:04.481Z,21.00
2019-05-05T12:50:26.551Z,20.31
2019-05-05T12:55:48.207Z,20.86
2019-05-05T13:01:24.579Z,21.16
2019-05-05T13:06:46.646Z,21.04
2019-05-05T13:12:08.392Z,20.92
2019-05-05T13:17:40.310Z,21.04
2019-05-05T13:23:19.868Z,20.77
2019-05-05T13:28:43.627Z,20.54
2019-05-05T13:34:05.208Z,20.40
2019-05-05T13:39:27.113Z,20.72
2019-05-05T13:45:03.956Z,20.89
2019-05-05T13:50:35.485Z,21.66
2019-05-05T13:56:08.965Z,21.75
2019-05-05T14:01:20.813Z,21.59
2019-05-05T14:06:44.140Z,21.13
2019-05-05T14:12:05.852Z,20.63
2019-05-05T14:17:27.794Z,20.62
2019-05-05T14:22:51.331Z,20.47
2019-05-05T14:28:14.114Z,20.34
2019-05-05T14:34:07.740Z,20.51
2019-05-05T14:39:29.475Z,20.68
2019-05-05T14:44:51.510Z,20.54
2019-05-05T14:50:13.588Z,19.97
2019-05-05T14:55:35.153Z,18.97
2019-05-05T15:00:56.938Z,18.51
2019-05-05T15:06:50.245Z,18.20
2019-05-05T15:12:30.432Z,17.64
2019-05-05T15:17:53.685Z,17.86
2019-05-05T15:23:15.600Z,17.86
2019-05-05T15:28:37.320Z,17.94
2019-05-05T15:34:00.253Z,18.06
2019-05-05T15:39:24.414Z,18.00
2019-05-05T15:44:46.237Z,17.94
2019-05-05T15:50:08.078Z,17.79
2019-05-05T15:55:30.212Z,17.71
2019-05-05T16:00:53.821Z,17.66
2019-05-05T16:06:19.501Z,17.59
2019-05-05T16:11:41.438Z,17.59
2019-05-05T16:17:24.174Z,17.66
2019-05-05T16:23:04.119Z,17.65
2019-05-05T16:28:26.274Z,17.64
2019-05-05T16:33:48.714Z,17.66
2019-05-05T16:39:10.280Z,17.75
2019-05-05T16:44:33.984Z,17.82
2019-05-05T16:49:56.168Z,17.82
2019-05-05T16:55:34.846Z,17.80
2019-05-05T17:00:56.671Z,17.80
2019-05-05T17:06:18.502Z,17.86
2019-05-05T17:11:43.917Z,17.82
2019-05-05T17:17:26.049Z,17.68
2019-05-05T17:22:51.858Z,17.47
2019-05-05T17:28:13.691Z,17.21
2019-05-05T17:33:35.288Z,17.19
2019-05-05T17:38:57.131Z,17.21
2019-05-05T17:44:41.028Z,17.24
2019-05-05T17:50:14.470Z,17.28
2019-05-05T17:55:38.059Z,17.32
2019-05-05T18:01:00.668Z,17.25
2019-05-05T18:06:35.987Z,17.22
2019-05-05T18:12:23.631Z,17.12
2019-05-05T18:17:45.852Z,17.11
2019-05-05T18:23:07.567Z,16.96
2019-05-05T18:28:29.242Z,16.96
2019-05-05T18:33:50.787Z,16.72
2019-05-05T18:39:13.751Z,16.67
2019-05-05T18:44:38.906Z,16.67
2019-05-05T18:50:01.090Z,16.63
2019-05-05T18:55:23.639Z,16.64
2019-05-05T19:01:06.463Z,16.56
2019-05-05T19:06:46.114Z,16.46
2019-05-05T19:12:10.244Z,16.40
2019-05-05T19:17:31.445Z,16.39
2019-05-05T19:23:05.870Z,16.53
2019-05-05T19:28:40.989Z,16.52
2019-05-05T19:33:51.331Z,16.47
2019-05-05T19:39:13.855Z,16.33
2019-05-05T19:44:38.590Z,16.16
2019-05-05T19:50:24.423Z,16.11
2019-05-05T19:55:46.523Z,16.02
2019-05-05T20:01:08.591Z,15.93
2019-05-05T20:06:30.141Z,15.92
2019-05-05T20:11:54.539Z,16.03
2019-05-05T20:17:25.033Z,16.05
2019-05-05T20:22:47.187Z,16.02
2019-05-05T20:28:09.396Z,15.98
2019-05-05T20:33:36.907Z,16.07
2019-05-05T20:38:58.953Z,16.13
2019-05-05T20:44:20.414Z,16.14
2019-05-05T20:49:44.234Z,16.21
2019-05-05T20:55:06.099Z,16.23
2019-05-05T21:00:27.992Z,16.40
2019-05-05T21:05:49.938Z,16.38
2019-05-05T21:11:14.161Z,16.32
2019-05-05T21:16:36.086Z,16.39
2019-05-05T21:21:59.779Z,16.26
2019-05-05T21:27:21.726Z,16.32
2019-05-05T21:32:46.580Z,16.43
2019-05-05T21:38:16.175Z,16.29
2019-05-05T21:43:37.935Z,16.30
2019-05-05T21:48:59.390Z,16.14
2019-05-05T21:54:39.528Z,16.15
2019-05-05T22:00:01.801Z,16.24
2019-05-05T22:05:24.055Z,16.16
2019-05-05T22:10:45.579Z,16.21
2019-05-05T22:16:07.138Z,16.20
2019-05-05T22:21:36.161Z,16.38
2019-05-05T22:26:57.939Z,16.27
2019-05-05T22:32:19.715Z,16.42
2019-05-05T22:37:41.293Z,16.32
2019-05-05T22:43:03.686Z,16.26
2019-05-05T22:48:25.529Z,16.24
2019-05-05T22:53:48.551Z,16.45
2019-05-05T22:59:10.708Z,16.49
2019-05-05T23:04:57.942Z,16.53
2019-05-05T23:10:20.013Z,16.45
2019-05-05T23:15:48.515Z,16.40
2019-05-05T23:21:38.820Z,16.33
2019-05-05T23:27:00.260Z,16.50
2019-05-05T23:32:21.983Z,16.43
2019-05-05T23:37:44.854Z,16.47
2019-05-05T23:43:06.458Z,16.46
2019-05-05T23:48:29.019Z,16.49
2019-05-05T23:53:50.766Z,16.46
2019-05-05T23:59:13.637Z,16.45
